sensor_id;sensor_type;location;lat;lon;timestamp;P1;durP1;ratioP1;P2;durP2;ratioP2
24585;SDS011;12743;52.262;6.172;2023-08-17T00:01:10;7.20;;;1.70;;
24585;SDS011;12743;52.262;6.172;2023-08-17T00:03:37;7.77;;;1.77;;
24585;SDS011;12743;52.262;6.172;2023-08-17T00:06:04;6.53;;;1.83;;
24585;SDS011;12743;52.262;6.172;2023-08-17T00:08:30;5.53;;;1.20;;
24585;SDS011;12743;52.262;6.172;2023-08-17T00:10:56;6.53;;;1.63;;
24585;SDS011;12743;52.262;6.172;2023-08-17T00:13:23;7.43;;;1.95;;
24585;SDS011;12743;52.262;6.172;2023-08-17T00:15:49;6.03;;;1.63;;
24585;SDS011;12743;52.262;6.172;2023-08-17T00:18:16;6.45;;;1.60;;
24585;SDS011;12743;52.262;6.172;2023-08-17T00:20:43;9.63;;;2.28;;
24585;SDS011;12743;52.262;6.172;2023-08-17T00:23:10;9.32;;;1.65;;
24585;SDS011;12743;52.262;6.172;2023-08-17T00:25:37;10.35;;;1.70;;
24585;SDS011;12743;52.262;6.172;2023-08-17T00:28:03;7.37;;;1.73;;
24585;SDS011;12743;52.262;6.172;2023-08-17T00:30:30;6.57;;;1.90;;
24585;SDS011;12743;52.262;6.172;2023-08-17T00:32:57;6.40;;;1.35;;
24585;SDS011;12743;52.262;6.172;2023-08-17T00:35:23;6.18;;;1.60;;
24585;SDS011;12743;52.262;6.172;2023-08-17T00:37:50;7.97;;;1.70;;
24585;SDS011;12743;52.262;6.172;2023-08-17T00:40:16;7.27;;;1.90;;
24585;SDS011;12743;52.262;6.172;2023-08-17T00:42:42;7.07;;;1.70;;
24585;SDS011;12743;52.262;6.172;2023-08-17T00:45:09;6.35;;;1.10;;
24585;SDS011;12743;52.262;6.172;2023-08-17T00:47:36;9.27;;;1.77;;
24585;SDS011;12743;52.262;6.172;2023-08-17T00:50:02;6.10;;;1.58;;
24585;SDS011;12743;52.262;6.172;2023-08-17T00:52:29;5.73;;;1.70;;
24585;SDS011;12743;52.262;6.172;2023-08-17T00:54:57;5.85;;;1.63;;
24585;SDS011;12743;52.262;6.172;2023-08-17T00:57:24;6.53;;;1.42;;
24585;SDS011;12743;52.262;6.172;2023-08-17T00:59:51;7.97;;;1.63;;
24585;SDS011;12743;52.262;6.172;2023-08-17T01:02:30;4.38;;;1.23;;
24585;SDS011;12743;52.262;6.172;2023-08-17T01:04:56;5.67;;;1.30;;
24585;SDS011;12743;52.262;6.172;2023-08-17T01:07:25;4.32;;;1.10;;
24585;SDS011;12743;52.262;6.172;2023-08-17T01:09:52;8.98;;;1.20;;
24585;SDS011;12743;52.262;6.172;2023-08-17T01:14:50;5.00;;;1.48;;
24585;SDS011;12743;52.262;6.172;2023-08-17T01:20:20;7.93;;;1.70;;
24585;SDS011;12743;52.262;6.172;2023-08-17T01:22:49;7.38;;;2.00;;
24585;SDS011;12743;52.262;6.172;2023-08-17T01:25:16;4.30;;;1.55;;
24585;SDS011;12743;52.262;6.172;2023-08-17T01:27:44;4.72;;;1.50;;
24585;SDS011;12743;52.262;6.172;2023-08-17T01:30:11;5.57;;;1.40;;
24585;SDS011;12743;52.262;6.172;2023-08-17T01:32:48;8.90;;;2.00;;
24585;SDS011;12743;52.262;6.172;2023-08-17T01:35:34;7.38;;;1.60;;
24585;SDS011;12743;52.262;6.172;2023-08-17T01:38:04;5.85;;;1.50;;
24585;SDS011;12743;52.262;6.172;2023-08-17T01:40:31;5.45;;;1.40;;
24585;SDS011;12743;52.262;6.172;2023-08-17T01:43:00;6.90;;;1.70;;
24585;SDS011;12743;52.262;6.172;2023-08-17T01:45:26;4.85;;;1.63;;
24585;SDS011;12743;52.262;6.172;2023-08-17T01:47:53;6.05;;;1.40;;
24585;SDS011;12743;52.262;6.172;2023-08-17T01:50:21;9.02;;;1.77;;
24585;SDS011;12743;52.262;6.172;2023-08-17T01:52:49;5.40;;;1.73;;
24585;SDS011;12743;52.262;6.172;2023-08-17T01:55:17;5.80;;;1.73;;
24585;SDS011;12743;52.262;6.172;2023-08-17T01:57:44;3.42;;;1.35;;
24585;SDS011;12743;52.262;6.172;2023-08-17T02:00:10;5.97;;;1.80;;
24585;SDS011;12743;52.262;6.172;2023-08-17T02:02:40;7.68;;;1.73;;
24585;SDS011;12743;52.262;6.172;2023-08-17T02:05:07;5.65;;;1.35;;
24585;SDS011;12743;52.262;6.172;2023-08-17T02:07:33;4.97;;;1.37;;
24585;SDS011;12743;52.262;6.172;2023-08-17T02:10:00;6.85;;;1.90;;
24585;SDS011;12743;52.262;6.172;2023-08-17T02:12:26;7.63;;;2.05;;
24585;SDS011;12743;52.262;6.172;2023-08-17T02:14:53;6.32;;;1.65;;
24585;SDS011;12743;52.262;6.172;2023-08-17T02:17:19;5.05;;;1.38;;
24585;SDS011;12743;52.262;6.172;2023-08-17T02:19:48;4.57;;;1.53;;
24585;SDS011;12743;52.262;6.172;2023-08-17T02:22:14;6.07;;;1.75;;
24585;SDS011;12743;52.262;6.172;2023-08-17T02:24:41;4.32;;;1.48;;
24585;SDS011;12743;52.262;6.172;2023-08-17T02:27:08;6.47;;;1.30;;
24585;SDS011;12743;52.262;6.172;2023-08-17T02:29:35;7.18;;;1.95;;
24585;SDS011;12743;52.262;6.172;2023-08-17T02:32:01;6.20;;;1.07;;
24585;SDS011;12743;52.262;6.172;2023-08-17T02:34:28;6.93;;;1.70;;
24585;SDS011;12743;52.262;6.172;2023-08-17T02:36:54;7.28;;;1.80;;
24585;SDS011;12743;52.262;6.172;2023-08-17T02:39:21;6.28;;;1.80;;
24585;SDS011;12743;52.262;6.172;2023-08-17T02:41:47;5.47;;;1.30;;
24585;SDS011;12743;52.262;6.172;2023-08-17T02:44:15;7.83;;;1.43;;
24585;SDS011;12743;52.262;6.172;2023-08-17T02:46:42;6.75;;;1.80;;
24585;SDS011;12743;52.262;6.172;2023-08-17T02:49:08;5.78;;;1.20;;
24585;SDS011;12743;52.262;6.172;2023-08-17T02:51:35;6.20;;;1.48;;
24585;SDS011;12743;52.262;6.172;2023-08-17T02:54:01;6.45;;;1.58;;
24585;SDS011;12743;52.262;6.172;2023-08-17T02:56:28;7.50;;;1.47;;
24585;SDS011;12743;52.262;6.172;2023-08-17T02:58:55;4.82;;;1.10;;
24585;SDS011;12743;52.262;6.172;2023-08-17T03:01:21;4.43;;;1.40;;
24585;SDS011;12743;52.262;6.172;2023-08-17T03:03:48;7.28;;;1.88;;
24585;SDS011;12743;52.262;6.172;2023-08-17T03:06:14;5.15;;;1.52;;
24585;SDS011;12743;52.262;6.172;2023-08-17T03:08:40;4.10;;;1.40;;
24585;SDS011;12743;52.262;6.172;2023-08-17T03:11:10;6.05;;;1.80;;
24585;SDS011;12743;52.262;6.172;2023-08-17T03:13:36;3.92;;;1.08;;
24585;SDS011;12743;52.262;6.172;2023-08-17T03:16:03;6.13;;;1.33;;
24585;SDS011;12743;52.262;6.172;2023-08-17T03:18:30;7.38;;;1.40;;
24585;SDS011;12743;52.262;6.172;2023-08-17T03:20:56;3.33;;;1.10;;
24585;SDS011;12743;52.262;6.172;2023-08-17T03:23:23;4.10;;;1.08;;
24585;SDS011;12743;52.262;6.172;2023-08-17T03:25:51;3.78;;;1.30;;
24585;SDS011;12743;52.262;6.172;2023-08-17T03:28:18;5.55;;;1.33;;
24585;SDS011;12743;52.262;6.172;2023-08-17T03:30:45;6.10;;;1.02;;
24585;SDS011;12743;52.262;6.172;2023-08-17T03:33:11;6.07;;;1.20;;
24585;SDS011;12743;52.262;6.172;2023-08-17T03:35:38;5.30;;;1.42;;
24585;SDS011;12743;52.262;6.172;2023-08-17T03:38:06;5.05;;;1.17;;
24585;SDS011;12743;52.262;6.172;2023-08-17T03:40:33;6.72;;;1.70;;
24585;SDS011;12743;52.262;6.172;2023-08-17T03:43:00;5.25;;;1.30;;
24585;SDS011;12743;52.262;6.172;2023-08-17T03:45:27;5.57;;;1.30;;
24585;SDS011;12743;52.262;6.172;2023-08-17T03:47:53;3.42;;;1.33;;
24585;SDS011;12743;52.262;6.172;2023-08-17T03:50:21;6.13;;;1.45;;
24585;SDS011;12743;52.262;6.172;2023-08-17T03:52:47;4.50;;;1.38;;
24585;SDS011;12743;52.262;6.172;2023-08-17T03:55:13;4.72;;;1.30;;
24585;SDS011;12743;52.262;6.172;2023-08-17T03:57:40;8.33;;;1.60;;
24585;SDS011;12743;52.262;6.172;2023-08-17T04:00:07;4.65;;;1.08;;
24585;SDS011;12743;52.262;6.172;2023-08-17T04:02:38;4.03;;;0.98;;
24585;SDS011;12743;52.262;6.172;2023-08-17T04:05:05;5.43;;;1.27;;
24585;SDS011;12743;52.262;6.172;2023-08-17T04:07:32;7.20;;;1.77;;
24585;SDS011;12743;52.262;6.172;2023-08-17T04:09:58;5.00;;;1.10;;
24585;SDS011;12743;52.262;6.172;2023-08-17T04:12:25;6.43;;;1.30;;
24585;SDS011;12743;52.262;6.172;2023-08-17T04:14:53;3.03;;;1.10;;
24585;SDS011;12743;52.262;6.172;2023-08-17T04:17:19;6.47;;;1.15;;
24585;SDS011;12743;52.262;6.172;2023-08-17T04:19:48;6.07;;;1.05;;
24585;SDS011;12743;52.262;6.172;2023-08-17T04:22:14;4.87;;;1.10;;
24585;SDS011;12743;52.262;6.172;2023-08-17T04:24:41;4.07;;;1.17;;
24585;SDS011;12743;52.262;6.172;2023-08-17T04:27:08;4.70;;;1.27;;
24585;SDS011;12743;52.262;6.172;2023-08-17T04:29:34;3.67;;;0.93;;
24585;SDS011;12743;52.262;6.172;2023-08-17T04:32:02;5.50;;;1.23;;
24585;SDS011;12743;52.262;6.172;2023-08-17T04:34:29;4.37;;;1.20;;
24585;SDS011;12743;52.262;6.172;2023-08-17T04:36:56;3.72;;;1.13;;
24585;SDS011;12743;52.262;6.172;2023-08-17T04:39:22;5.30;;;1.30;;
24585;SDS011;12743;52.262;6.172;2023-08-17T04:41:49;5.20;;;1.23;;
24585;SDS011;12743;52.262;6.172;2023-08-17T04:44:22;4.43;;;1.30;;
24585;SDS011;12743;52.262;6.172;2023-08-17T04:46:49;4.23;;;1.00;;
24585;SDS011;12743;52.262;6.172;2023-08-17T04:49:16;7.40;;;1.40;;
24585;SDS011;12743;52.262;6.172;2023-08-17T04:51:42;3.92;;;1.00;;
24585;SDS011;12743;52.262;6.172;2023-08-17T04:54:09;5.13;;;0.93;;
24585;SDS011;12743;52.262;6.172;2023-08-17T04:56:35;5.18;;;1.08;;
24585;SDS011;12743;52.262;6.172;2023-08-17T04:59:03;5.83;;;1.00;;
24585;SDS011;12743;52.262;6.172;2023-08-17T05:01:29;5.68;;;0.82;;
24585;SDS011;12743;52.262;6.172;2023-08-17T05:03:56;4.78;;;1.10;;
24585;SDS011;12743;52.262;6.172;2023-08-17T05:06:23;3.15;;;0.75;;
24585;SDS011;12743;52.262;6.172;2023-08-17T05:08:50;4.80;;;1.00;;
24585;SDS011;12743;52.262;6.172;2023-08-17T05:11:17;3.90;;;1.00;;
24585;SDS011;12743;52.262;6.172;2023-08-17T05:13:43;5.15;;;1.05;;
24585;SDS011;12743;52.262;6.172;2023-08-17T05:16:10;4.55;;;0.70;;
24585;SDS011;12743;52.262;6.172;2023-08-17T05:18:36;7.25;;;1.00;;
24585;SDS011;12743;52.262;6.172;2023-08-17T05:21:03;5.65;;;1.05;;
24585;SDS011;12743;52.262;6.172;2023-08-17T05:23:31;6.27;;;1.27;;
24585;SDS011;12743;52.262;6.172;2023-08-17T05:25:57;6.45;;;1.23;;
24585;SDS011;12743;52.262;6.172;2023-08-17T05:28:24;5.28;;;0.80;;
24585;SDS011;12743;52.262;6.172;2023-08-17T05:30:51;5.38;;;1.13;;
24585;SDS011;12743;52.262;6.172;2023-08-17T05:33:17;6.18;;;1.40;;
24585;SDS011;12743;52.262;6.172;2023-08-17T05:35:44;5.20;;;1.20;;
24585;SDS011;12743;52.262;6.172;2023-08-17T05:38:11;5.32;;;1.25;;
24585;SDS011;12743;52.262;6.172;2023-08-17T05:40:37;3.92;;;0.90;;
24585;SDS011;12743;52.262;6.172;2023-08-17T05:43:03;5.10;;;1.10;;
24585;SDS011;12743;52.262;6.172;2023-08-17T05:45:30;5.07;;;1.05;;
24585;SDS011;12743;52.262;6.172;2023-08-17T05:47:56;5.47;;;1.47;;
24585;SDS011;12743;52.262;6.172;2023-08-17T05:50:23;4.72;;;1.17;;
24585;SDS011;12743;52.262;6.172;2023-08-17T05:52:49;3.75;;;0.95;;
24585;SDS011;12743;52.262;6.172;2023-08-17T05:55:16;6.13;;;1.30;;
24585;SDS011;12743;52.262;6.172;2023-08-17T05:57:42;4.35;;;1.00;;
24585;SDS011;12743;52.262;6.172;2023-08-17T06:00:09;4.57;;;1.00;;
24585;SDS011;12743;52.262;6.172;2023-08-17T06:02:40;5.30;;;1.48;;
24585;SDS011;12743;52.262;6.172;2023-08-17T06:05:07;7.72;;;1.65;;
24585;SDS011;12743;52.262;6.172;2023-08-17T06:07:35;6.53;;;1.65;;
24585;SDS011;12743;52.262;6.172;2023-08-17T06:10:03;5.63;;;1.30;;
24585;SDS011;12743;52.262;6.172;2023-08-17T06:12:30;5.57;;;1.60;;
24585;SDS011;12743;52.262;6.172;2023-08-17T06:14:56;5.97;;;1.35;;
24585;SDS011;12743;52.262;6.172;2023-08-17T06:17:23;5.05;;;1.38;;
24585;SDS011;12743;52.262;6.172;2023-08-17T06:19:50;4.97;;;1.40;;
24585;SDS011;12743;52.262;6.172;2023-08-17T06:22:16;6.10;;;1.42;;
24585;SDS011;12743;52.262;6.172;2023-08-17T06:24:43;7.90;;;1.87;;
24585;SDS011;12743;52.262;6.172;2023-08-17T06:27:11;4.78;;;1.58;;
24585;SDS011;12743;52.262;6.172;2023-08-17T06:29:37;7.70;;;1.55;;
24585;SDS011;12743;52.262;6.172;2023-08-17T06:32:04;4.80;;;1.50;;
24585;SDS011;12743;52.262;6.172;2023-08-17T06:34:30;6.75;;;1.52;;
24585;SDS011;12743;52.262;6.172;2023-08-17T06:37:01;8.43;;;2.20;;
24585;SDS011;12743;52.262;6.172;2023-08-17T06:39:28;6.40;;;1.70;;
24585;SDS011;12743;52.262;6.172;2023-08-17T06:41:55;7.50;;;1.50;;
24585;SDS011;12743;52.262;6.172;2023-08-17T06:44:21;4.57;;;1.40;;
24585;SDS011;12743;52.262;6.172;2023-08-17T06:46:48;6.15;;;1.60;;
24585;SDS011;12743;52.262;6.172;2023-08-17T06:49:14;5.73;;;1.30;;
24585;SDS011;12743;52.262;6.172;2023-08-17T06:51:41;5.55;;;1.52;;
24585;SDS011;12743;52.262;6.172;2023-08-17T06:54:07;6.65;;;1.17;;
24585;SDS011;12743;52.262;6.172;2023-08-17T06:56:34;4.82;;;1.17;;
24585;SDS011;12743;52.262;6.172;2023-08-17T06:59:01;8.00;;;2.13;;
24585;SDS011;12743;52.262;6.172;2023-08-17T07:01:27;8.87;;;1.40;;
24585;SDS011;12743;52.262;6.172;2023-08-17T07:03:54;6.18;;;1.17;;
24585;SDS011;12743;52.262;6.172;2023-08-17T07:06:20;7.43;;;1.10;;
24585;SDS011;12743;52.262;6.172;2023-08-17T07:08:47;5.60;;;1.67;;
24585;SDS011;12743;52.262;6.172;2023-08-17T07:11:13;4.20;;;0.90;;
24585;SDS011;12743;52.262;6.172;2023-08-17T07:13:40;4.60;;;1.60;;
24585;SDS011;12743;52.262;6.172;2023-08-17T07:16:07;7.97;;;1.58;;
24585;SDS011;12743;52.262;6.172;2023-08-17T07:18:34;4.68;;;1.13;;
24585;SDS011;12743;52.262;6.172;2023-08-17T07:21:01;6.93;;;1.10;;
24585;SDS011;12743;52.262;6.172;2023-08-17T07:23:27;4.80;;;1.17;;
24585;SDS011;12743;52.262;6.172;2023-08-17T07:25:54;6.10;;;1.37;;
24585;SDS011;12743;52.262;6.172;2023-08-17T07:28:20;6.10;;;1.27;;
24585;SDS011;12743;52.262;6.172;2023-08-17T07:30:47;4.93;;;1.00;;
24585;SDS011;12743;52.262;6.172;2023-08-17T07:33:13;6.22;;;1.45;;
24585;SDS011;12743;52.262;6.172;2023-08-17T07:35:40;8.73;;;1.10;;
24585;SDS011;12743;52.262;6.172;2023-08-17T07:38:06;7.80;;;1.30;;
24585;SDS011;12743;52.262;6.172;2023-08-17T07:40:35;5.15;;;1.20;;
24585;SDS011;12743;52.262;6.172;2023-08-17T07:43:02;8.40;;;1.48;;
24585;SDS011;12743;52.262;6.172;2023-08-17T07:45:28;4.70;;;1.10;;
24585;SDS011;12743;52.262;6.172;2023-08-17T07:47:55;7.10;;;1.67;;
24585;SDS011;12743;52.262;6.172;2023-08-17T07:50:21;6.23;;;1.23;;
24585;SDS011;12743;52.262;6.172;2023-08-17T07:52:48;10.55;;;2.08;;
24585;SDS011;12743;52.262;6.172;2023-08-17T07:55:14;6.18;;;0.98;;
24585;SDS011;12743;52.262;6.172;2023-08-17T07:57:41;8.90;;;1.50;;
24585;SDS011;12743;52.262;6.172;2023-08-17T08:00:07;4.80;;;1.10;;
24585;SDS011;12743;52.262;6.172;2023-08-17T08:02:34;7.60;;;1.30;;
24585;SDS011;12743;52.262;6.172;2023-08-17T08:05:01;6.78;;;1.30;;
24585;SDS011;12743;52.262;6.172;2023-08-17T08:07:27;5.93;;;1.35;;
24585;SDS011;12743;52.262;6.172;2023-08-17T08:09:54;4.65;;;0.90;;
24585;SDS011;12743;52.262;6.172;2023-08-17T08:12:20;5.13;;;1.10;;
24585;SDS011;12743;52.262;6.172;2023-08-17T08:14:47;7.77;;;1.67;;
24585;SDS011;12743;52.262;6.172;2023-08-17T08:17:14;5.70;;;1.15;;
24585;SDS011;12743;52.262;6.172;2023-08-17T08:19:41;6.05;;;1.50;;
24585;SDS011;12743;52.262;6.172;2023-08-17T08:22:07;4.63;;;1.00;;
24585;SDS011;12743;52.262;6.172;2023-08-17T08:24:34;6.78;;;1.30;;
24585;SDS011;12743;52.262;6.172;2023-08-17T08:27:04;5.13;;;1.10;;
24585;SDS011;12743;52.262;6.172;2023-08-17T08:29:31;4.43;;;1.08;;
24585;SDS011;12743;52.262;6.172;2023-08-17T08:31:57;3.33;;;0.90;;
24585;SDS011;12743;52.262;6.172;2023-08-17T08:34:26;4.60;;;1.30;;
24585;SDS011;12743;52.262;6.172;2023-08-17T08:36:52;6.28;;;1.20;;
24585;SDS011;12743;52.262;6.172;2023-08-17T08:39:19;5.60;;;1.57;;
24585;SDS011;12743;52.262;6.172;2023-08-17T08:41:45;7.40;;;1.50;;
24585;SDS011;12743;52.262;6.172;2023-08-17T08:44:12;6.47;;;1.80;;
24585;SDS011;12743;52.262;6.172;2023-08-17T08:46:39;7.78;;;2.33;;
24585;SDS011;12743;52.262;6.172;2023-08-17T08:49:07;7.60;;;1.58;;
24585;SDS011;12743;52.262;6.172;2023-08-17T08:51:35;7.17;;;1.60;;
24585;SDS011;12743;52.262;6.172;2023-08-17T08:54:04;10.00;;;2.08;;
24585;SDS011;12743;52.262;6.172;2023-08-17T08:56:34;8.40;;;1.75;;
24585;SDS011;12743;52.262;6.172;2023-08-17T08:59:01;8.85;;;1.77;;
24585;SDS011;12743;52.262;6.172;2023-08-17T09:01:30;6.57;;;1.73;;
24585;SDS011;12743;52.262;6.172;2023-08-17T09:03:58;6.17;;;1.87;;
24585;SDS011;12743;52.262;6.172;2023-08-17T09:06:25;7.70;;;1.92;;
24585;SDS011;12743;52.262;6.172;2023-08-17T09:08:53;10.18;;;2.00;;
24585;SDS011;12743;52.262;6.172;2023-08-17T09:11:19;16.88;;;2.58;;
24585;SDS011;12743;52.262;6.172;2023-08-17T09:13:46;6.80;;;1.50;;
24585;SDS011;12743;52.262;6.172;2023-08-17T09:16:18;11.40;;;2.10;;
24585;SDS011;12743;52.262;6.172;2023-08-17T09:18:47;10.63;;;2.70;;
24585;SDS011;12743;52.262;6.172;2023-08-17T09:21:20;6.88;;;1.77;;
24585;SDS011;12743;52.262;6.172;2023-08-17T09:23:54;6.32;;;1.88;;
24585;SDS011;12743;52.262;6.172;2023-08-17T09:26:24;6.03;;;2.08;;
24585;SDS011;12743;52.262;6.172;2023-08-17T09:28:51;8.30;;;2.10;;
24585;SDS011;12743;52.262;6.172;2023-08-17T09:31:21;7.65;;;1.80;;
24585;SDS011;12743;52.262;6.172;2023-08-17T09:33:49;7.55;;;2.40;;
24585;SDS011;12743;52.262;6.172;2023-08-17T09:36:19;8.30;;;2.15;;
24585;SDS011;12743;52.262;6.172;2023-08-17T09:38:47;7.57;;;2.10;;
24585;SDS011;12743;52.262;6.172;2023-08-17T09:41:13;8.63;;;1.93;;
24585;SDS011;12743;52.262;6.172;2023-08-17T09:43:40;7.13;;;2.30;;
24585;SDS011;12743;52.262;6.172;2023-08-17T09:46:07;8.63;;;2.30;;
24585;SDS011;12743;52.262;6.172;2023-08-17T09:48:34;9.65;;;3.10;;
24585;SDS011;12743;52.262;6.172;2023-08-17T09:51:01;8.70;;;2.70;;
24585;SDS011;12743;52.262;6.172;2023-08-17T09:53:28;6.77;;;2.20;;
24585;SDS011;12743;52.262;6.172;2023-08-17T09:55:55;9.45;;;1.95;;
24585;SDS011;12743;52.262;6.172;2023-08-17T09:58:22;8.77;;;2.45;;
24585;SDS011;12743;52.262;6.172;2023-08-17T10:00:49;8.15;;;2.60;;
24585;SDS011;12743;52.262;6.172;2023-08-17T10:03:18;6.40;;;2.10;;
24585;SDS011;12743;52.262;6.172;2023-08-17T10:05:47;9.43;;;2.33;;
24585;SDS011;12743;52.262;6.172;2023-08-17T10:08:14;7.03;;;2.70;;
24585;SDS011;12743;52.262;6.172;2023-08-17T10:10:45;8.45;;;2.92;;
24585;SDS011;12743;52.262;6.172;2023-08-17T10:16:02;7.45;;;2.60;;
24585;SDS011;12743;52.262;6.172;2023-08-17T10:21:13;6.60;;;2.00;;
24585;SDS011;12743;52.262;6.172;2023-08-17T10:23:40;6.63;;;2.35;;
24585;SDS011;12743;52.262;6.172;2023-08-17T10:26:08;6.47;;;1.90;;
24585;SDS011;12743;52.262;6.172;2023-08-17T10:28:35;7.38;;;2.58;;
24585;SDS011;12743;52.262;6.172;2023-08-17T10:31:01;7.30;;;2.37;;
24585;SDS011;12743;52.262;6.172;2023-08-17T10:33:28;9.40;;;2.10;;
24585;SDS011;12743;52.262;6.172;2023-08-17T10:35:55;8.25;;;2.53;;
24585;SDS011;12743;52.262;6.172;2023-08-17T10:38:22;5.60;;;2.00;;
24585;SDS011;12743;52.262;6.172;2023-08-17T10:41:07;7.18;;;2.75;;
24585;SDS011;12743;52.262;6.172;2023-08-17T10:43:34;8.23;;;2.20;;
24585;SDS011;12743;52.262;6.172;2023-08-17T10:46:14;9.45;;;2.58;;
24585;SDS011;12743;52.262;6.172;2023-08-17T10:48:43;7.97;;;2.70;;
24585;SDS011;12743;52.262;6.172;2023-08-17T10:51:09;5.53;;;2.28;;
24585;SDS011;12743;52.262;6.172;2023-08-17T10:53:40;8.00;;;2.47;;
24585;SDS011;12743;52.262;6.172;2023-08-17T10:56:12;8.20;;;2.50;;
24585;SDS011;12743;52.262;6.172;2023-08-17T10:58:39;6.13;;;2.30;;
24585;SDS011;12743;52.262;6.172;2023-08-17T11:01:08;5.80;;;2.50;;
24585;SDS011;12743;52.262;6.172;2023-08-17T11:03:34;4.57;;;1.90;;
24585;SDS011;12743;52.262;6.172;2023-08-17T11:06:21;6.22;;;2.08;;
24585;SDS011;12743;52.262;6.172;2023-08-17T11:08:55;6.43;;;2.73;;
24585;SDS011;12743;52.262;6.172;2023-08-17T11:11:22;8.25;;;2.33;;
24585;SDS011;12743;52.262;6.172;2023-08-17T11:13:49;7.88;;;2.40;;
24585;SDS011;12743;52.262;6.172;2023-08-17T11:16:21;6.30;;;2.10;;
24585;SDS011;12743;52.262;6.172;2023-08-17T11:18:48;6.72;;;2.30;;
24585;SDS011;12743;52.262;6.172;2023-08-17T11:21:18;6.77;;;2.20;;
24585;SDS011;12743;52.262;6.172;2023-08-17T11:23:46;6.38;;;2.30;;
24585;SDS011;12743;52.262;6.172;2023-08-17T11:26:19;5.10;;;2.10;;
24585;SDS011;12743;52.262;6.172;2023-08-17T11:28:45;3.83;;;1.75;;
24585;SDS011;12743;52.262;6.172;2023-08-17T11:31:13;5.55;;;2.38;;
24585;SDS011;12743;52.262;6.172;2023-08-17T11:33:40;4.50;;;2.10;;
24585;SDS011;12743;52.262;6.172;2023-08-17T11:36:07;7.35;;;2.20;;
24585;SDS011;12743;52.262;6.172;2023-08-17T11:38:35;5.75;;;1.98;;
24585;SDS011;12743;52.262;6.172;2023-08-17T11:41:02;5.25;;;2.42;;
24585;SDS011;12743;52.262;6.172;2023-08-17T11:43:29;7.25;;;2.72;;
24585;SDS011;12743;52.262;6.172;2023-08-17T11:45:56;7.47;;;2.53;;
24585;SDS011;12743;52.262;6.172;2023-08-17T11:48:23;5.95;;;2.22;;
24585;SDS011;12743;52.262;6.172;2023-08-17T11:50:51;4.88;;;2.30;;
24585;SDS011;12743;52.262;6.172;2023-08-17T11:53:17;5.75;;;2.55;;
24585;SDS011;12743;52.262;6.172;2023-08-17T11:55:44;7.25;;;3.17;;
24585;SDS011;12743;52.262;6.172;2023-08-17T11:58:10;6.43;;;2.70;;
24585;SDS011;12743;52.262;6.172;2023-08-17T12:00:41;5.10;;;2.17;;
24585;SDS011;12743;52.262;6.172;2023-08-17T12:03:07;6.57;;;2.67;;
24585;SDS011;12743;52.262;6.172;2023-08-17T12:05:34;5.57;;;2.80;;
24585;SDS011;12743;52.262;6.172;2023-08-17T12:08:01;6.03;;;3.00;;
24585;SDS011;12743;52.262;6.172;2023-08-17T12:10:28;9.23;;;2.83;;
24585;SDS011;12743;52.262;6.172;2023-08-17T12:12:57;7.18;;;3.47;;
24585;SDS011;12743;52.262;6.172;2023-08-17T12:15:23;7.10;;;2.72;;
24585;SDS011;12743;52.262;6.172;2023-08-17T12:17:51;7.07;;;3.60;;
24585;SDS011;12743;52.262;6.172;2023-08-17T12:20:20;5.88;;;3.05;;
24585;SDS011;12743;52.262;6.172;2023-08-17T12:22:47;6.87;;;3.50;;
24585;SDS011;12743;52.262;6.172;2023-08-17T12:25:13;7.57;;;3.30;;
24585;SDS011;12743;52.262;6.172;2023-08-17T12:27:40;7.10;;;3.60;;
24585;SDS011;12743;52.262;6.172;2023-08-17T12:30:14;8.23;;;3.40;;
24585;SDS011;12743;52.262;6.172;2023-08-17T12:32:49;7.20;;;3.72;;
24585;SDS011;12743;52.262;6.172;2023-08-17T12:35:16;10.23;;;4.07;;
24585;SDS011;12743;52.262;6.172;2023-08-17T12:37:42;6.43;;;3.08;;
24585;SDS011;12743;52.262;6.172;2023-08-17T12:40:09;8.20;;;3.70;;
24585;SDS011;12743;52.262;6.172;2023-08-17T12:42:36;8.18;;;3.60;;
24585;SDS011;12743;52.262;6.172;2023-08-17T12:45:02;8.35;;;3.63;;
24585;SDS011;12743;52.262;6.172;2023-08-17T12:47:31;6.23;;;3.40;;
24585;SDS011;12743;52.262;6.172;2023-08-17T12:50:00;7.38;;;2.97;;
24585;SDS011;12743;52.262;6.172;2023-08-17T12:52:27;6.60;;;3.35;;
24585;SDS011;12743;52.262;6.172;2023-08-17T12:54:54;6.70;;;3.20;;
24585;SDS011;12743;52.262;6.172;2023-08-17T12:57:21;9.68;;;3.55;;
24585;SDS011;12743;52.262;6.172;2023-08-17T12:59:47;12.73;;;4.10;;
24585;SDS011;12743;52.262;6.172;2023-08-17T13:02:13;5.88;;;2.95;;
24585;SDS011;12743;52.262;6.172;2023-08-17T13:04:41;7.35;;;3.30;;
24585;SDS011;12743;52.262;6.172;2023-08-17T13:07:07;8.13;;;3.25;;
24585;SDS011;12743;52.262;6.172;2023-08-17T13:09:34;10.55;;;3.58;;
24585;SDS011;12743;52.262;6.172;2023-08-17T13:12:00;8.17;;;3.73;;
24585;SDS011;12743;52.262;6.172;2023-08-17T13:14:27;6.50;;;3.45;;
24585;SDS011;12743;52.262;6.172;2023-08-17T13:16:53;8.52;;;3.72;;
24585;SDS011;12743;52.262;6.172;2023-08-17T13:19:19;7.72;;;3.47;;
24585;SDS011;12743;52.262;6.172;2023-08-17T13:21:46;6.78;;;3.03;;
24585;SDS011;12743;52.262;6.172;2023-08-17T13:24:12;8.10;;;3.40;;
24585;SDS011;12743;52.262;6.172;2023-08-17T13:26:39;7.60;;;3.80;;
24585;SDS011;12743;52.262;6.172;2023-08-17T13:29:08;8.32;;;4.40;;
24585;SDS011;12743;52.262;6.172;2023-08-17T13:31:35;9.27;;;4.00;;
24585;SDS011;12743;52.262;6.172;2023-08-17T13:34:02;8.70;;;3.80;;
24585;SDS011;12743;52.262;6.172;2023-08-17T13:36:28;8.00;;;3.77;;
24585;SDS011;12743;52.262;6.172;2023-08-17T13:38:55;8.07;;;4.00;;
24585;SDS011;12743;52.262;6.172;2023-08-17T13:41:21;8.10;;;4.78;;
24585;SDS011;12743;52.262;6.172;2023-08-17T13:43:51;7.90;;;4.05;;
24585;SDS011;12743;52.262;6.172;2023-08-17T13:46:17;8.15;;;4.03;;
24585;SDS011;12743;52.262;6.172;2023-08-17T13:48:44;9.73;;;4.80;;
24585;SDS011;12743;52.262;6.172;2023-08-17T13:51:10;9.07;;;3.90;;
24585;SDS011;12743;52.262;6.172;2023-08-17T13:53:37;8.25;;;4.68;;
24585;SDS011;12743;52.262;6.172;2023-08-17T13:56:04;8.43;;;4.03;;
24585;SDS011;12743;52.262;6.172;2023-08-17T13:58:30;7.15;;;3.92;;
24585;SDS011;12743;52.262;6.172;2023-08-17T14:00:57;7.33;;;4.27;;
24585;SDS011;12743;52.262;6.172;2023-08-17T14:03:24;7.57;;;4.15;;
24585;SDS011;12743;52.262;6.172;2023-08-17T14:05:50;9.27;;;4.55;;
24585;SDS011;12743;52.262;6.172;2023-08-17T14:08:17;5.95;;;3.60;;
24585;SDS011;12743;52.262;6.172;2023-08-17T14:10:43;9.10;;;4.30;;
24585;SDS011;12743;52.262;6.172;2023-08-17T14:13:10;9.77;;;5.03;;
24585;SDS011;12743;52.262;6.172;2023-08-17T14:15:36;8.65;;;4.65;;
24585;SDS011;12743;52.262;6.172;2023-08-17T14:18:03;8.02;;;4.40;;
24585;SDS011;12743;52.262;6.172;2023-08-17T14:20:30;10.80;;;5.10;;
24585;SDS011;12743;52.262;6.172;2023-08-17T14:22:56;7.05;;;4.40;;
24585;SDS011;12743;52.262;6.172;2023-08-17T14:25:23;8.93;;;4.73;;
24585;SDS011;12743;52.262;6.172;2023-08-17T14:27:49;6.57;;;4.00;;
24585;SDS011;12743;52.262;6.172;2023-08-17T14:30:16;6.00;;;3.55;;
24585;SDS011;12743;52.262;6.172;2023-08-17T14:32:42;8.20;;;4.75;;
24585;SDS011;12743;52.262;6.172;2023-08-17T14:35:08;7.55;;;3.97;;
24585;SDS011;12743;52.262;6.172;2023-08-17T14:37:38;6.47;;;3.87;;
24585;SDS011;12743;52.262;6.172;2023-08-17T14:40:05;7.22;;;4.18;;
24585;SDS011;12743;52.262;6.172;2023-08-17T14:42:32;7.57;;;3.85;;
24585;SDS011;12743;52.262;6.172;2023-08-17T14:44:58;8.77;;;4.45;;
24585;SDS011;12743;52.262;6.172;2023-08-17T14:47:25;9.13;;;4.93;;
24585;SDS011;12743;52.262;6.172;2023-08-17T14:49:51;10.60;;;4.97;;
24585;SDS011;12743;52.262;6.172;2023-08-17T14:52:19;9.27;;;5.40;;
24585;SDS011;12743;52.262;6.172;2023-08-17T14:54:46;10.18;;;5.55;;
24585;SDS011;12743;52.262;6.172;2023-08-17T14:57:12;9.35;;;5.38;;
24585;SDS011;12743;52.262;6.172;2023-08-17T14:59:39;10.63;;;5.63;;